Home > Products > Valid Products > TAF

000
FTUS44 KLIX 212300
TAFMCB
TAF
KMCB 212320Z 2200/2224 24004KT P6SM SCT050 SCT150 BKN250
     FM220300 VRB02KT P6SM SCT250
      TEMPO 2209/2212 5SM BR
     FM221500 VRB05KT P6SM SCT045=



000
FTUS44 KLIX 212300
TAFMSY
TAF
KMSY 212320Z 2200/2224 VRB05KT P6SM SCT050 BKN150
     FM220300 VRB04KT P6SM SCT250
     FM221500 VRB05KT P6SM SCT040=



000
FTUS44 KLIX 212300
TAFGPT
TAF
KGPT 212320Z 2200/2224 VRB04KT P6SM SCT250
     FM221500 VRB05KT P6SM SCT040
     FM221800 18006KT P6SM SCT045=



000
FTUS44 KLIX 212300
TAFNEW
TAF
KNEW 212320Z 2200/2224 25006KT P6SM SCT040 SCT150 BKN250
     FM220300 VRB04KT P6SM SCT250
     FM221500 36006KT P6SM SCT040
     FM222100 VRB05KT P6SM SCT045=



000
FTUS44 KLIX 212300
TAFBTR
TAF
KBTR 212320Z 2200/2224 VRB03KT P6SM SCT050 SCT150 BKN250
     FM220300 VRB02KT P6SM SCT250
     FM221500 VRB05KT P6SM SCT045=



000
FTUS44 KLIX 212300
TAFNEW
TAF
KNEW 212320Z 2200/2224 25006KT P6SM SCT040 SCT150 BKN250
     FM220300 VRB04KT P6SM SCT250
     FM221500 36006KT P6SM SCT040
     FM222100 VRB05KT P6SM SCT045=



000
FTUS44 KLIX 212100 AAC
TAFMCB
TAF AMD
KMCB 212159Z 2122/2218 21005KT P6SM SCT040
      TEMPO 2122/2123 VRB28KT 2SM TSRA BKN030CB
     FM220100 00000KT P6SM SCT130
     FM221500 31003KT P6SM FEW030 SCT250=



000
FTUS44 KLIX 212000 AAB
TAFMSY
TAF AMD
KMSY 212052Z 2121/2218 19005KT P6SM VCTS SCT035CB
      TEMPO 2121/2122 VRB10KT 2SM TSRA BKN035CB
     FM220000 22003KT P6SM SCT120
     FM221300 35004KT P6SM SCT250=



000
FTUS44 KLIX 212000 AAB
TAFBTR
TAF AMD
KBTR 212052Z 2121/2218 21006KT P6SM VCTS SCT040CB
      TEMPO 2121/2122 VRB10KT 2SM TSRA BKN035CB
     FM220100 00000KT P6SM SCT140
     FM221500 30003KT P6SM SCT250=



000
FTUS44 KLIX 212000 AAA
TAFMSY
TAF AMD
KMSY 212020Z 2120/2218 19005KT P6SM VCTS SCT035CB
     FM220000 22003KT P6SM SCT120
     FM221300 35004KT P6SM SCT250=



000
FTUS44 KLIX 212000 AAB
TAFMCB
TAF AMD
KMCB 212004Z 2120/2218 20004KT P6SM SCT040
      TEMPO 2120/2121 VRB10KT 2SM TSRA BKN040CB
     FM220100 00000KT P6SM SCT130
     FM221500 31003KT P6SM FEW030 SCT250=



000
FTUS44 KLIX 211900 AAA
TAFMCB
TAF AMD
KMCB 211928Z 2119/2218 20004KT P6SM VCTS SCT040CB
     FM220100 00000KT P6SM SCT130
     FM221500 31003KT P6SM FEW030 SCT250=



000
FTUS44 KLIX 211900 AAA
TAFBTR
TAF AMD
KBTR 211927Z 2119/2218 21006KT P6SM VCTS SCT050CB
     FM220100 00000KT P6SM SCT140
     FM221500 30003KT P6SM SCT250=



000
FTUS44 KLIX 211700
TAFGPT
TAF
KGPT 211728Z 2118/2218 18007KT P6SM SCT040
     FM220100 00000KT P6SM SCT140
     FM221500 VRB04KT P6SM FEW040 SCT140=



000
FTUS44 KLIX 211700
TAFMCB
TAF
KMCB 211728Z 2118/2218 20004KT P6SM SCT040
     FM220100 00000KT P6SM SCT130
     FM221500 31003KT P6SM FEW030 SCT250=



000
FTUS44 KLIX 211700
TAFNEW
TAF
KNEW 211728Z 2118/2218 21007KT P6SM SCT035 BKN150
     FM220500 VRB05KT P6SM SCT150=



000
FTUS44 KLIX 211700
TAFNEW
TAF
KNEW 211728Z 2118/2218 21007KT P6SM SCT035 BKN150
     FM220500 VRB05KT P6SM SCT150=



000
FTUS44 KLIX 211700
TAFMSY
TAF
KMSY 211728Z 2118/2218 10004KT P6SM SCT035
     FM212000 19005KT P6SM SCT035
     FM220000 22003KT P6SM SCT120
     FM221300 35004KT P6SM SCT250=



000
FTUS44 KLIX 211700
TAFBTR
TAF
KBTR 211728Z 2118/2218 21006KT P6SM FEW025 SCT050
      TEMPO 2118/2119 BKN025
     FM220100 00000KT P6SM SCT140
     FM221500 30003KT P6SM SCT250=



000
FTUS44 KLIX 211100
TAFGPT
TAF
KGPT 211120Z 2112/2212 VRB03KT P6SM SKC
     FM211800 20007KT P6SM SCT045
     FM220500 26006KT P6SM FEW045=



000
FTUS44 KLIX 211100
TAFNEW
TAF
KNEW 211120Z 2112/2212 16003KT P6SM SKC
     FM211500 35004KT P6SM FEW040
     FM212100 15004KT P6SM SCT045
     FM220900 27006KT P6SM SCT045=



000
FTUS44 KLIX 211100
TAFNEW
TAF
KNEW 211120Z 2112/2212 16003KT P6SM SKC
     FM211500 35004KT P6SM FEW040
     FM212100 15004KT P6SM SCT045
     FM220900 27006KT P6SM SCT045=



000
FTUS44 KLIX 211100
TAFMSY
TAF
KMSY 211120Z 2112/2212 32005KT P6SM FEW030 BKN250
     FM211900 19006KT P6SM SCT040
     FM221000 29004KT P6SM SCT045=



000
FTUS44 KLIX 211100
TAFBTR
TAF
KBTR 211120Z 2112/2212 24005KT P6SM SCT045
     FM212000 20005KT P6SM BKN045
     FM221000 00000KT P6SM SCT250=



000
FTUS44 KLIX 211100
TAFMCB
TAF
KMCB 211120Z 2112/2212 VRB03KT P6SM SCT040
     FM212000 19004KT P6SM SCT040
     FM220200 VRB03KT P6SM SCT250=



000
FTUS44 KLIX 210500
TAFGPT
TAF
KGPT 210525Z 2106/2206 VRB03KT P6SM SCT250
     FM211500 VRB05KT P6SM SCT035
     FM211800 20007KT P6SM SCT040
     FM220000 21007KT P6SM SCT250=



000
FTUS44 KLIX 210500
TAFNEW
TAF
KNEW 210525Z 2106/2206 VRB04KT P6SM SCT250
     FM211500 02005KT P6SM SCT035
     FM212000 20005KT P6SM SCT040
     FM220000 20004KT P6SM SCT250=



000
FTUS44 KLIX 210500
TAFMCB
TAF
KMCB 210525Z 2106/2206 00000KT P6SM SCT250
     FM211500 24006KT P6SM SCT040
     FM220100 00000KT P6SM SCT250=



000
FTUS44 KLIX 210500
TAFNEW
TAF
KNEW 210525Z 2106/2206 VRB04KT P6SM SCT250
     FM211500 02005KT P6SM SCT035
     FM212000 20005KT P6SM SCT040
     FM220000 20004KT P6SM SCT250=



000
FTUS44 KLIX 210500
TAFMSY
TAF
KMSY 210525Z 2106/2206 VRB03KT P6SM SCT250
     FM211500 20005KT P6SM SCT040
     FM220100 20005KT P6SM SCT250=



000
FTUS44 KLIX 210500
TAFBTR
TAF
KBTR 210525Z 2106/2206 VRB03KT P6SM SCT250
     FM211500 23006KT P6SM SCT040
     FM220100 21004KT P6SM SCT250=



000
FTUS44 KLIX 210016
TAFMCB

TAF
KMCB 202320Z 2100/2124 20005KT P6SM SCT035 SCT040
     FM210100 00000KT P6SM SCT250
     FM211500 25005KT P6SM SCT030 SCT250=



000
FTUS44 KLIX 210018
TAFNEW

TAF
KNEW 202320Z 2100/2124 19005KT P6SM SCT250
     FM211100 32005KT P6SM SCT250
     FM211600 04006KT P6SM SCT030 SCT250=



000
FTUS44 KLIX 210018
TAFNEW

TAF
KNEW 202320Z 2100/2124 19005KT P6SM SCT250
     FM211100 32005KT P6SM SCT250
     FM211600 04006KT P6SM SCT030 SCT250=



000
FTUS44 KLIX 210017
TAFGPT

TAF
KGPT 202320Z 2100/2124 16005KT P6SM SCT040 SCT060
     FM210100 00000KT P6SM SCT250
     FM211500 VRB04KT P6SM SCT030 SCT250
     FM211900 18008KT P6SM SCT040 SCT250=



000
FTUS44 KLIX 210013
TAFBTR

TAF
KBTR 202320Z 2100/2124 VRB04KT P6SM SCT040 BKN050
     FM211500 22006KT P6SM SCT030 SCT250=



000
FTUS44 KLIX 210015
TAFMSY

TAF
KMSY 202320Z 2100/2124 19003KT P6SM SCT250
     FM211500 20005KT P6SM SCT030 SCT250=



000
FTUS44 KLIX 201900 AAA
TAFBTR
TAF AMD
KBTR 201908Z 2019/2118 19005KT P6SM VCTS SCT050CB
     FM210000 20005KT P6SM SCT250
     FM211500 20004KT P6SM SCT030 SCT250=



000
FTUS44 KLIX 201700
TAFNEW
TAF
KNEW 201729Z 2018/2118 05006KT P6SM VCSH SCT040
     FM201900 15007KT P6SM VCTS SCT040CB
     FM210000 20005KT P6SM SCT250
     FM211100 32005KT P6SM SCT250
     FM211600 04006KT P6SM SCT030 SCT250=



000
FTUS44 KLIX 201700
TAFMSY
TAF
KMSY 201729Z 2018/2118 20007KT P6SM VCTS SCT035CB BKN250
     FM210100 20005KT P6SM SCT250
     FM211500 20005KT P6SM SCT030 SCT250=



000
FTUS44 KLIX 201700
TAFNEW
TAF
KNEW 201729Z 2018/2118 05006KT P6SM VCSH SCT040
     FM201900 15007KT P6SM VCTS SCT040CB
     FM210000 20005KT P6SM SCT250
     FM211100 32005KT P6SM SCT250
     FM211600 04006KT P6SM SCT030 SCT250=



000
FTUS44 KLIX 201700
TAFGPT
TAF
KGPT 201729Z 2018/2118 22005KT P6SM SCT040 SCT060
     FM210100 00000KT P6SM SCT250
     FM211500 18004KT P6SM SCT030 SCT250=



000
FTUS44 KLIX 201700
TAFBTR
TAF
KBTR 201729Z 2018/2118 19005KT P6SM SCT025 SCT040
     FM210000 20005KT P6SM SCT250
     FM211500 20004KT P6SM SCT030 SCT250=



000
FTUS44 KLIX 201700
TAFMCB
TAF
KMCB 201729Z 2018/2118 20005KT P6SM SCT035 SCT040
     FM210100 00000KT P6SM SCT250
     FM211500 25005KT P6SM SCT030 SCT250=



000
FTUS44 KLIX 201100
TAFNEW
TAF
KNEW 201120Z 2012/2112 23006KT P6SM SCT250
     FM201600 18006KT P6SM VCTS SCT040CB
     FM210000 20005KT P6SM SCT250=



000
FTUS44 KLIX 201100
TAFMCB
TAF
KMCB 201120Z 2012/2112 VRB03KT P6SM SCT250
     FM201600 20005KT P6SM SCT045
     FM210100 21004KT P6SM SCT250=



000
FTUS44 KLIX 201100
TAFBTR
TAF
KBTR 201120Z 2012/2112 20003KT P6SM SCT250
     FM201600 19005KT P6SM VCTS SCT045CB
     FM210000 20005KT P6SM SCT200=



000
FTUS44 KLIX 201100
TAFMSY
TAF
KMSY 201120Z 2012/2112 21005KT P6SM FEW060 SCT250
     FM201600 18005KT P6SM VCTS SCT040CB
     FM210100 20005KT P6SM SCT250=



000
FTUS44 KLIX 201100
TAFNEW
TAF
KNEW 201120Z 2012/2112 23006KT P6SM SCT250
     FM201600 18006KT P6SM VCTS SCT040CB
     FM210000 20005KT P6SM SCT250=



000
FTUS44 KLIX 201100
TAFGPT
TAF
KGPT 201120Z 2012/2112 VRB03KT P6SM SCT250
     FM201500 22005KT P6SM SCT040
     FM210000 21004KT P6SM SCT250=



000
FTUS44 KLIX 200500
TAFNEW
TAF
KNEW 200530Z 2006/2106 23006KT P6SM SCT250
     FM201600 18006KT P6SM SCT040
     FM210000 20005KT P6SM SCT250=



000
FTUS44 KLIX 200500
TAFMSY
TAF
KMSY 200530Z 2006/2106 21005KT P6SM FEW040 SCT250
     FM201600 18005KT P6SM SCT040
     FM210100 20005KT P6SM SCT250=



000
FTUS44 KLIX 200500
TAFBTR
TAF
KBTR 200530Z 2006/2106 20003KT P6SM SCT250
     FM201600 19005KT P6SM SCT045
     FM210000 20005KT P6SM SCT200=



000
FTUS44 KLIX 200500
TAFMCB
TAF
KMCB 200530Z 2006/2106 VRB03KT P6SM BKN250
     FM200800 VRB03KT 4SM BR SCT250
     FM201200 VRB03KT P6SM SCT250
     FM201600 20005KT P6SM SCT045
     FM210100 21004KT P6SM SCT250=



000
FTUS44 KLIX 200500
TAFGPT
TAF
KGPT 200530Z 2006/2106 VRB03KT P6SM SCT250
     FM201500 22005KT P6SM SCT040
     FM210000 21004KT P6SM SCT250=



000
FTUS44 KLIX 200500
TAFNEW
TAF
KNEW 200530Z 2006/2106 23006KT P6SM SCT250
     FM201600 18006KT P6SM SCT040
     FM210000 20005KT P6SM SCT250=



000
FTUS44 KLIX 192300
TAFMCB
TAF
KMCB 192330Z 2000/2024 VRB03KT P6SM SCT050=



000
FTUS44 KLIX 192300
TAFNEW
TAF
KNEW 192330Z 2000/2024 23007KT P6SM SCT200
     FM201700 16005KT P6SM SCT050 SCT250=



000
FTUS44 KLIX 192300
TAFGPT
TAF
KGPT 192330Z 2000/2024 22006KT P6SM FEW050 SCT250=



000
FTUS44 KLIX 192300
TAFMSY
TAF
KMSY 192330Z 2000/2024 23005KT P6SM BKN250
     FM201700 17005KT P6SM BKN250=



000
FTUS44 KLIX 192300
TAFBTR
TAF
KBTR 192330Z 2000/2024 VRB03KT P6SM SCT050=



000
FTUS44 KLIX 191800 AAA
TAFMSY
TAF AMD
KMSY 191851Z 1919/2018 22007KT P6SM VCTS SCT030CB SCT250
     FM200100 20005KT P6SM SCT250
     FM201500 20007KT P6SM SCT030 SCT250=



000
FTUS44 KLIX 191700
TAFMSY
TAF
KMSY 191720Z 1918/2018 22007KT P6SM SCT030 SCT250
     FM200100 20005KT P6SM SCT250
     FM201500 20007KT P6SM SCT030 SCT250=



000
FTUS44 KLIX 191700
TAFNEW
TAF
KNEW 191720Z 1918/2018 30007KT P6SM FEW030 SCT250
     FM192100 24007KT P6SM SCT040 SCT250
     FM200100 21006KT P6SM SCT250
     FM201500 30006KT P6SM FEW030 SCT250=



000
FTUS44 KLIX 191700
TAFGPT
TAF
KGPT 191720Z 1918/2018 22007KT P6SM SCT035 SCT250
     FM200100 20003KT P6SM SCT250
     FM201600 20005KT P6SM FEW030 SCT250=



000
FTUS44 KLIX 191700
TAFMCB
TAF
KMCB 191720Z 1918/2018 24007KT P6SM FEW030 SCT250
     FM200100 00000KT P6SM SCT250
     FM201500 23005KT P6SM FEW030 SCT250=



000
FTUS44 KLIX 191700
TAFBTR
TAF
KBTR 191720Z 1918/2018 23006KT P6SM SCT025 SCT050
      TEMPO 1918/1920 BKN020
     FM200100 21005KT P6SM SCT250
     FM201500 20005KT P6SM SCT040 SCT250=



000
FTUS44 KLIX 191700
TAFNEW
TAF
KNEW 191720Z 1918/2018 30007KT P6SM FEW030 SCT250
     FM192100 24007KT P6SM SCT040 SCT250
     FM200100 21006KT P6SM SCT250
     FM201500 30006KT P6SM FEW030 SCT250=



000
FTUS44 KLIX 191100 AAA
TAFMCB
TAF AMD
KMCB 191159Z 1912/2012 21004KT P6SM SCT100
      TEMPO 1912/1913 4SM BR OVC003
     FM192100 23006KT P6SM SCT050=



000
FTUS44 KLIX 191100
TAFNEW
TAF
KNEW 191120Z 1912/2012 22007KT P6SM SCT250
     FM192100 21006KT P6SM SCT040
     FM200100 20007KT P6SM SCT150=



000
FTUS44 KLIX 191100
TAFNEW
TAF
KNEW 191120Z 1912/2012 22007KT P6SM SCT250
     FM192100 21006KT P6SM SCT040
     FM200100 20007KT P6SM SCT150=



000
FTUS44 KLIX 191100
TAFBTR
TAF
KBTR 191120Z 1912/2012 23006KT P6SM SCT250
     FM192100 23006KT P6SM SCT050
     FM200100 20005KT P6SM SCT250=



000
FTUS44 KLIX 191100
TAFMCB
TAF
KMCB 191120Z 1912/2012 21004KT P6SM SCT100
     FM192100 23006KT P6SM SCT050=



000
FTUS44 KLIX 191100
TAFGPT
TAF
KGPT 191120Z 1912/2012 22007KT P6SM SCT250
     FM192100 23006KT P6SM SCT040
     FM200100 20005KT P6SM SCT250=



000
FTUS44 KLIX 191100
TAFMSY
TAF
KMSY 191120Z 1912/2012 22007KT P6SM SCT250
     FM191900 23006KT P6SM SCT040
     FM200100 20006KT P6SM SCT250=



000
FTUS44 KLIX 190500
TAFNEW
TAF
KNEW 190520Z 1906/2006 22007KT P6SM SCT250
     FM192100 21006KT P6SM SCT040
     FM200100 20007KT P6SM SCT150=



000
FTUS44 KLIX 190500
TAFMCB
TAF
KMCB 190520Z 1906/2006 21004KT P6SM SCT100
     FM192100 23006KT P6SM SCT050=



000
FTUS44 KLIX 190500
TAFNEW
TAF
KNEW 190520Z 1906/2006 22007KT P6SM SCT250
     FM192100 21006KT P6SM SCT040
     FM200100 20007KT P6SM SCT150=



000
FTUS44 KLIX 190500
TAFBTR
TAF
KBTR 190520Z 1906/2006 23006KT P6SM SCT250
     FM192100 23006KT P6SM SCT050
     FM200100 20005KT P6SM SCT250=



000
FTUS44 KLIX 190500
TAFGPT
TAF
KGPT 190520Z 1906/2006 22007KT P6SM SCT250
     FM192100 23006KT P6SM SCT040
     FM200100 20005KT P6SM SCT250=



000
FTUS44 KLIX 190500
TAFMSY
TAF
KMSY 190520Z 1906/2006 22007KT P6SM SCT250
     FM191900 23006KT P6SM SCT040
     FM200100 20006KT P6SM SCT250=



    US Dept of Commerce
    National Oceanic and Atmospheric Administration
    National Weather Service
    1325 East West Highway
    Silver Spring, MD 20910
    Page Author: NWS Internet Services Team
Disclaimer
Information Quality
Credits
Glossary
Privacy Policy
Freedom of Information Act (FOIA)
About Us
Career Opportunities